Time;durP1;ratioP1;P1;durP2;ratioP2;P2;SDS_P1;SDS_P2;PMS_P1;PMS_P2;Temp;Humidity;BMP_temperature;BMP_pressure;BME280_temperature;BME280_humidity;BME280_pressure;Samples;Min_cycle;Max_cycle;Signal;HPM_P1;HPM_P2
2023/01/08 00:00:45;;;;;;;10.63;1.35;;;;;;;9.66;100.00;100281.16;5009647;28;20503;-60
2023/01/08 00:03:11;;;;;;;8.00;1.50;;;;;;;9.70;100.00;100277.47;5009242;28;20033;-63
2023/01/08 00:05:36;;;;;;;6.60;1.33;;;;;;;9.65;100.00;100269.75;5009459;28;20026;-63
2023/01/08 00:08:02;;;;;;;6.57;1.40;;;;;;;9.66;100.00;100273.25;5009951;28;20049;-62
2023/01/08 00:10:27;;;;;;;6.65;1.48;;;;;;;9.75;100.00;100270.25;5001599;28;20025;-62
2023/01/08 00:12:54;;;;;;;8.98;1.92;;;;;;;9.69;100.00;100278.41;5008442;28;20077;-64
2023/01/08 00:15:20;;;;;;;7.28;1.38;;;;;;;9.67;100.00;100272.34;5008938;28;20473;-64
2023/01/08 00:17:45;;;;;;;4.70;1.73;;;;;;;9.64;100.00;100268.06;5009687;28;20040;-62
2023/01/08 00:20:10;;;;;;;10.48;2.00;;;;;;;9.65;100.00;100272.41;5008734;28;20037;-63
2023/01/08 00:22:36;;;;;;;6.90;1.75;;;;;;;9.73;100.00;100270.31;5009621;28;20038;-62
2023/01/08 00:25:01;;;;;;;4.10;1.85;;;;;;;9.75;100.00;100270.25;5008735;28;20026;-62
2023/01/08 00:27:26;;;;;;;7.55;2.05;;;;;;;9.76;100.00;100250.06;5008196;28;20026;-63
2023/01/08 00:29:52;;;;;;;6.93;1.70;;;;;;;9.70;100.00;100240.66;5003021;28;20105;-61
2023/01/08 00:32:17;;;;;;;10.07;2.13;;;;;;;9.71;100.00;100232.69;5007782;28;20030;-62
2023/01/08 00:34:42;;;;;;;6.18;2.08;;;;;;;9.66;100.00;100226.75;5007890;28;20560;-62
2023/01/08 00:37:08;;;;;;;8.32;2.33;;;;;;;9.68;100.00;100224.91;5008140;28;20018;-62
2023/01/08 00:39:33;;;;;;;8.30;2.88;;;;;;;9.64;100.00;100231.22;5008724;28;20040;-63
2023/01/08 00:41:58;;;;;;;9.75;1.98;;;;;;;9.70;100.00;100224.88;5008635;28;20036;-62
2023/01/08 00:44:24;;;;;;;7.40;2.38;;;;;;;9.66;100.00;100218.03;5007828;28;20030;-64
2023/01/08 00:46:49;;;;;;;7.65;2.25;;;;;;;9.69;100.00;100220.53;5009429;28;20026;-63
2023/01/08 00:49:14;;;;;;;8.65;2.40;;;;;;;9.74;100.00;100221.19;5003339;28;20037;-61
2023/01/08 00:51:40;;;;;;;9.20;2.50;;;;;;;9.66;100.00;100212.75;5014147;28;20037;-63
2023/01/08 00:54:05;;;;;;;7.10;2.20;;;;;;;9.75;100.00;100217.63;5027303;28;20013;-60
2023/01/08 00:56:30;;;;;;;10.40;2.30;;;;;;;9.76;100.00;100207.97;5027099;28;20464;-61
2023/01/08 00:58:56;;;;;;;8.95;2.67;;;;;;;9.78;100.00;100208.78;5027316;28;20057;-63
2023/01/08 01:01:22;;;;;;;8.50;2.40;;;;;;;9.71;100.00;100210.78;5028085;28;20033;-62
2023/01/08 01:03:47;;;;;;;5.88;2.45;;;;;;;9.78;100.00;100214.03;5028856;28;20022;-63
2023/01/08 01:06:13;;;;;;;8.75;2.60;;;;;;;9.77;100.00;100210.53;5028315;28;20404;-63
2023/01/08 01:08:38;;;;;;;6.00;2.42;;;;;;;9.78;100.00;100214.03;5031122;28;20034;-62
2023/01/08 01:11:17;;;;;;;7.72;2.60;;;;;;;9.85;100.00;100203.16;5032769;28;20025;-63
2023/01/08 01:13:42;;;;;;;12.07;2.95;;;;;;;9.88;100.00;100194.31;5032059;28;20026;-62
2023/01/08 01:16:07;;;;;;;8.60;2.65;;;;;;;9.83;100.00;100199.78;5032163;28;20032;-57
2023/01/08 01:18:33;;;;;;;15.05;3.00;;;;;;;9.81;100.00;100206.84;5005516;28;20029;-61
2023/01/08 01:20:58;;;;;;;10.77;2.58;;;;;;;9.81;100.00;100211.28;5011129;28;20026;-62
2023/01/08 01:23:23;;;;;;;13.15;2.63;;;;;;;9.76;100.00;100197.44;5006350;28;20037;-62
2023/01/08 01:25:49;;;;;;;13.13;2.67;;;;;;;9.84;100.00;100200.59;4988753;28;20034;-63
2023/01/08 01:28:15;;;;;;;8.70;2.70;;;;;;;9.86;100.00;100217.19;4990879;28;20109;-62
2023/01/08 01:30:40;;;;;;;9.40;2.60;;;;;;;9.81;100.00;100211.28;4992006;28;20038;-63
2023/01/08 01:33:05;;;;;;;6.18;2.53;;;;;;;9.77;100.00;100202.66;4992176;28;20023;-63
2023/01/08 01:35:31;;;;;;;5.72;2.05;;;;;;;9.77;100.00;100199.16;4992613;28;20376;-61
2023/01/08 01:37:56;;;;;;;6.88;2.17;;;;;;;9.69;100.00;100196.84;4995202;28;20033;-62
2023/01/08 01:40:21;;;;;;;8.77;1.95;;;;;;;9.69;100.00;100202.13;5009849;28;20022;-62
2023/01/08 01:42:47;;;;;;;10.90;2.05;;;;;;;9.68;100.00;100210.91;5009487;28;20080;-62
2023/01/08 01:45:18;;;;;;;3.97;1.77;;;;;;;9.63;100.00;100218.97;5009997;28;20125;-61
2023/01/08 01:47:55;;;;;;;7.15;2.75;;;;;;;9.65;100.00;100222.41;5011517;28;20022;-62
2023/01/08 01:50:44;;;;;;;6.43;1.80;;;;;;;9.63;100.00;100220.78;5010235;28;20018;-62
2023/01/08 01:53:21;;;;;;;4.45;1.67;;;;;;;9.67;100.00;100219.72;5011057;28;20475;-62
2023/01/08 01:55:47;;;;;;;2.92;1.50;;;;;;;9.59;100.00;100218.25;4994836;28;20022;-63
2023/01/08 01:58:15;;;;;;;5.88;1.20;;;;;;;9.59;100.00;100226.16;5004785;28;20395;-62
2023/01/08 02:00:42;;;;;;;2.87;1.20;;;;;;;9.47;100.00;100216.09;5010627;28;20037;-63
2023/01/08 02:03:08;;;;;;;6.05;1.52;;;;;;;9.60;100.00;100211.19;4995395;28;20076;-63
2023/01/08 02:05:49;;;;;;;11.82;1.83;;;;;;;9.55;100.00;100207.91;5010669;28;20021;-63
2023/01/08 02:08:23;;;;;;;8.32;1.30;;;;;;;9.48;100.00;100209.91;5023288;28;20041;-62
2023/01/08 02:10:56;;;;;;;6.50;1.70;;;;;;;9.44;100.00;100209.19;4994575;28;20083;-64
2023/01/08 02:13:30;;;;;;;7.35;1.67;;;;;;;9.42;100.00;100207.56;4990628;28;20644;-62
2023/01/08 02:16:00;;;;;;;5.93;1.60;;;;;;;9.42;100.00;100207.56;4993265;28;20065;-62
2023/01/08 02:18:25;;;;;;;7.47;1.73;;;;;;;9.45;100.00;100210.91;5010034;28;20022;-63
2023/01/08 02:20:57;;;;;;;6.53;1.50;;;;;;;9.44;100.00;100213.59;5010202;28;20459;-60
2023/01/08 02:23:43;;;;;;;11.40;2.00;;;;;;;9.40;100.00;100210.25;5010345;28;20084;-63
2023/01/08 02:26:18;;;;;;;7.25;1.75;;;;;;;9.42;100.00;100199.66;4993003;28;20052;-61
2023/01/08 02:29:03;;;;;;;10.95;1.58;;;;;;;9.39;100.00;100198.00;5007555;28;20072;-62
2023/01/08 02:31:30;;;;;;;9.18;1.42;;;;;;;9.46;100.00;100206.50;5023991;28;20050;-62
2023/01/08 02:33:55;;;;;;;10.10;1.88;;;;;;;9.54;100.00;100209.69;4992610;28;20018;-62
2023/01/08 02:36:26;;;;;;;7.63;1.50;;;;;;;9.55;100.00;100210.53;5009879;28;20041;-61
2023/01/08 02:38:54;;;;;;;6.72;1.55;;;;;;;9.44;100.00;100203.94;5008241;28;20040;-62
2023/01/08 02:41:23;;;;;;;5.03;1.45;;;;;;;9.39;100.00;100199.78;5007879;28;20022;-63
2023/01/08 02:43:50;;;;;;;5.22;1.27;;;;;;;9.42;100.00;100195.25;4994591;28;20375;-60
2023/01/08 02:46:25;;;;;;;6.53;1.25;;;;;;;9.42;100.00;100184.72;4992567;28;20021;-62
2023/01/08 02:48:53;;;;;;;5.68;1.45;;;;;;;9.45;100.00;100189.03;4992467;28;20026;-59
2023/01/08 02:51:28;;;;;;;11.52;1.92;;;;;;;9.40;100.00;100190.97;5010088;28;20014;-63
2023/01/08 02:53:58;;;;;;;4.28;1.42;;;;;;;9.46;100.00;100185.47;4994968;28;20037;-62
2023/01/08 02:56:26;;;;;;;12.32;1.50;;;;;;;9.43;100.00;100181.19;4992062;28;20025;-61
2023/01/08 02:58:52;;;;;;;7.65;1.83;;;;;;;9.37;100.00;100189.31;4974754;28;20042;-64
2023/01/08 03:01:19;;;;;;;5.32;1.33;;;;;;;9.41;100.00;100184.78;4992160;28;20526;-64
2023/01/08 03:03:49;;;;;;;8.07;1.33;;;;;;;9.45;100.00;100189.03;4993342;28;20296;-63
2023/01/08 03:06:18;;;;;;;7.07;1.45;;;;;;;9.44;100.00;100189.94;4991708;28;20092;-62
2023/01/08 03:08:46;;;;;;;4.53;1.45;;;;;;;9.44;100.00;100182.03;4992324;28;20022;-63
2023/01/08 03:11:13;;;;;;;7.85;1.75;;;;;;;9.41;100.00;100183.03;5009135;28;20084;-62
2023/01/08 03:13:43;;;;;;;7.55;1.45;;;;;;;9.45;100.00;100189.03;5008341;28;20075;-63
2023/01/08 03:16:12;;;;;;;4.85;1.30;;;;;;;9.49;100.00;100203.75;5009479;28;20296;-63
2023/01/08 03:18:44;;;;;;;9.38;2.67;;;;;;;9.44;100.00;100198.69;4992524;28;20574;-61
2023/01/08 03:21:10;;;;;;;6.25;1.38;;;;;;;9.41;100.00;100185.66;4991643;28;20029;-63
2023/01/08 03:23:37;;;;;;;8.80;1.20;;;;;;;9.47;100.00;100189.81;5008949;28;20018;-62
2023/01/08 03:26:04;;;;;;;4.05;1.23;;;;;;;9.50;100.00;100187.06;5009239;28;20123;-61
2023/01/08 03:28:34;;;;;;;9.02;1.40;;;;;;;9.46;100.00;100182.84;4993708;28;20026;-63
2023/01/08 03:31:00;;;;;;;4.75;1.52;;;;;;;9.52;100.00;100165.97;4989230;28;20033;-64
2023/01/08 03:33:26;;;;;;;6.20;1.83;;;;;;;9.43;100.00;100177.72;4992032;28;20010;-63
2023/01/08 03:35:53;;;;;;;11.50;1.88;;;;;;;9.44;100.00;100166.25;5008660;28;20080;-64
2023/01/08 03:38:26;;;;;;;7.55;1.75;;;;;;;9.35;100.00;100160.47;5007696;28;20021;-62
2023/01/08 03:41:04;;;;;;;12.15;2.47;;;;;;;9.48;100.00;100173.97;5023805;28;20088;-63
2023/01/08 03:43:29;;;;;;;8.80;1.97;;;;;;;9.32;100.00;100165.84;5005467;28;20448;-63
2023/01/08 03:45:58;;;;;;;9.32;1.70;;;;;;;9.31;100.00;100173.78;5008615;28;20268;-63
2023/01/08 03:48:24;;;;;;;11.60;2.05;;;;;;;9.22;100.00;100178.47;4991754;28;20029;-63
2023/01/08 03:50:50;;;;;;;10.13;1.92;;;;;;;9.18;100.00;100176.06;4993068;28;20022;-63
2023/01/08 03:53:15;;;;;;;6.05;1.48;;;;;;;9.10;100.00;100181.59;5009673;28;20100;-62
2023/01/08 03:55:41;;;;;;;11.32;1.88;;;;;;;8.96;100.00;100176.84;5003967;28;20034;-61
2023/01/08 03:58:06;;;;;;;7.63;1.60;;;;;;;8.88;100.00;100185.00;4994172;28;20018;-64
2023/01/08 04:00:32;;;;;;;6.43;1.45;;;;;;;8.88;100.00;100179.75;5010111;28;20046;-62
2023/01/08 04:02:57;;;;;;;5.63;1.60;;;;;;;8.82;100.00;100175.59;5009262;28;20022;-64
2023/01/08 04:05:22;;;;;;;4.22;1.38;;;;;;;8.82;100.00;100178.22;5006221;28;20025;-63
2023/01/08 04:07:48;;;;;;;3.85;1.33;;;;;;;8.83;100.00;100176.47;5008694;28;20507;-63
2023/01/08 04:10:13;;;;;;;15.68;1.67;;;;;;;8.70;100.00;100178.69;5009423;28;20025;-63
2023/01/08 04:12:41;;;;;;;7.40;1.52;;;;;;;8.70;100.00;100166.41;4998821;28;20412;-63
2023/01/08 04:15:07;;;;;;;6.60;1.43;;;;;;;8.60;100.00;100175.53;5007509;28;20044;-63
2023/01/08 04:17:32;;;;;;;6.53;1.55;;;;;;;8.60;100.00;100170.28;5008730;28;20022;-63
2023/01/08 04:19:58;;;;;;;9.98;1.40;;;;;;;8.56;100.00;100169.56;5008922;28;20065;-65
2023/01/08 04:22:23;;;;;;;8.55;1.33;;;;;;;8.53;100.00;100166.13;5009005;28;20108;-64
2023/01/08 04:24:48;;;;;;;6.93;1.65;;;;;;;8.44;100.00;100164.69;4965304;28;20089;-63
2023/01/08 04:27:14;;;;;;;11.40;1.88;;;;;;;8.45;100.00;100163.78;5007808;28;20662;-64
2023/01/08 04:29:39;;;;;;;10.23;1.85;;;;;;;8.38;100.00;100159.66;5007774;28;20026;-64
2023/01/08 04:32:04;;;;;;;7.95;1.10;;;;;;;8.43;100.00;100157.75;5008403;28;20487;-63
2023/01/08 04:34:30;;;;;;;12.35;1.75;;;;;;;8.46;100.00;100155.84;5008580;28;20472;-59
2023/01/08 04:36:55;;;;;;;4.88;1.40;;;;;;;8.33;100.00;100158.06;5008468;28;20099;-65
2023/01/08 04:39:20;;;;;;;8.55;1.63;;;;;;;8.37;100.00;100160.59;5008967;28;20025;-61
2023/01/08 04:41:45;;;;;;;9.38;2.05;;;;;;;8.33;100.00;100154.56;5008061;28;20030;-63
2023/01/08 04:44:11;;;;;;;6.78;1.50;;;;;;;8.28;100.00;100154.72;5002866;28;20034;-63
2023/01/08 04:46:36;;;;;;;6.95;1.40;;;;;;;8.28;100.00;100154.72;5003784;28;20028;-62
2023/01/08 04:49:02;;;;;;;7.53;1.73;;;;;;;8.27;100.00;100152.16;5007130;28;20026;-63
2023/01/08 04:51:27;;;;;;;9.07;1.70;;;;;;;8.24;100.00;100147.88;4990137;28;20495;-63
2023/01/08 04:53:52;;;;;;;10.15;2.10;;;;;;;8.15;100.00;100138.56;5008445;28;20025;-64
2023/01/08 04:56:18;;;;;;;8.25;1.58;;;;;;;8.14;100.00;100141.25;5009572;28;20116;-62
2023/01/08 04:58:43;;;;;;;7.07;1.52;;;;;;;8.11;100.00;100143.97;5008268;28;20049;-63
2023/01/08 05:01:15;;;;;;;7.97;1.75;;;;;;;8.06;100.00;100141.50;5008721;28;20041;-63
2023/01/08 05:03:40;;;;;;;9.23;1.63;;;;;;;8.08;100.00;100134.47;4991158;28;20033;-63
2023/01/08 05:06:06;;;;;;;7.72;2.30;;;;;;;8.06;100.00;100134.50;4990894;28;20113;-63
2023/01/08 05:08:32;;;;;;;5.55;1.90;;;;;;;8.06;100.00;100131.88;5008595;28;20033;-64
2023/01/08 05:10:58;;;;;;;12.27;2.05;;;;;;;8.06;100.00;100133.63;5006108;28;20033;-57
2023/01/08 05:13:23;;;;;;;6.38;1.80;;;;;;;8.09;100.00;100134.41;5005602;28;20077;-64
2023/01/08 05:15:49;;;;;;;9.45;2.40;;;;;;;7.96;100.00;100141.84;4990519;28;20109;-63
2023/01/08 05:18:14;;;;;;;8.27;1.73;;;;;;;8.07;100.00;100138.84;5007071;28;20157;-60
2023/01/08 05:20:39;;;;;;;11.93;2.28;;;;;;;8.15;100.00;100142.94;5008353;28;20042;-63
2023/01/08 05:23:05;;;;;;;5.20;2.15;;;;;;;8.12;100.00;100133.44;5008716;28;20029;-64
2023/01/08 05:25:30;;;;;;;7.72;2.13;;;;;;;8.12;100.00;100127.34;5001372;28;20040;-63
2023/01/08 05:27:55;;;;;;;11.90;1.90;;;;;;;7.99;100.00;100132.13;5002945;28;20037;-65
2023/01/08 05:30:21;;;;;;;9.77;2.10;;;;;;;8.09;100.00;100136.16;5008093;28;20041;-62
2023/01/08 05:32:46;;;;;;;7.90;1.63;;;;;;;8.13;100.00;100134.28;5007604;28;20021;-63
2023/01/08 05:35:11;;;;;;;9.07;2.25;;;;;;;8.09;100.00;100137.03;5007830;28;20021;-62
2023/01/08 05:37:37;;;;;;;11.45;1.98;;;;;;;8.12;100.00;100136.06;5008145;28;20025;-63
2023/01/08 05:40:03;;;;;;;11.23;2.08;;;;;;;8.11;100.00;100138.72;5007338;28;20531;-65
2023/01/08 05:42:28;;;;;;;8.80;2.15;;;;;;;8.07;100.00;100132.75;4989774;28;20439;-64
2023/01/08 05:44:54;;;;;;;19.98;2.60;;;;;;;8.09;100.00;100134.41;5004700;28;20121;-63
2023/01/08 05:47:19;;;;;;;9.02;1.63;;;;;;;8.13;100.00;100129.06;5007564;28;20057;-63
2023/01/08 05:49:45;;;;;;;14.80;2.40;;;;;;;8.12;100.00;100125.56;5007406;28;20042;-63
2023/01/08 05:52:10;;;;;;;9.50;2.35;;;;;;;8.11;100.00;100125.59;5007680;28;20105;-64
2023/01/08 05:54:35;;;;;;;9.15;2.22;;;;;;;8.17;100.00;100133.28;5009567;28;20113;-65
2023/01/08 05:57:01;;;;;;;7.72;2.15;;;;;;;8.11;100.00;100125.59;5010578;28;20021;-64
2023/01/08 05:59:26;;;;;;;13.30;2.20;;;;;;;8.02;100.00;100132.91;5011349;28;20025;-65
2023/01/08 06:01:51;;;;;;;16.55;2.15;;;;;;;8.12;100.00;100137.84;4993484;28;20029;-64
2023/01/08 06:04:17;;;;;;;8.45;1.88;;;;;;;8.06;100.00;100137.13;5011297;28;20053;-61
2023/01/08 06:06:42;;;;;;;12.27;1.92;;;;;;;8.08;100.00;100132.69;5011742;28;20076;-63
2023/01/08 06:09:08;;;;;;;8.70;2.03;;;;;;;8.10;100.00;100137.91;5010476;28;20073;-63
2023/01/08 06:11:33;;;;;;;8.65;1.75;;;;;;;8.03;100.00;100132.00;5011076;28;20022;-60
2023/01/08 06:13:58;;;;;;;16.65;2.22;;;;;;;8.01;100.00;100146.91;5011111;28;20475;-64
2023/01/08 06:16:24;;;;;;;13.68;2.58;;;;;;;7.95;100.00;100149.78;5006650;28;20510;-64
2023/01/08 06:18:49;;;;;;;10.00;2.50;;;;;;;7.84;100.00;100156.25;5007135;28;20503;-63
2023/01/08 06:21:14;;;;;;;12.63;2.97;;;;;;;7.89;100.00;100152.59;5000606;28;20034;-63
2023/01/08 06:23:40;;;;;;;9.10;2.42;;;;;;;7.83;100.00;100148.41;5010540;28;20076;-61
2023/01/08 06:26:05;;;;;;;12.40;2.28;;;;;;;7.81;100.00;100142.34;5009523;28;20112;-63
2023/01/08 06:28:31;;;;;;;12.05;2.35;;;;;;;7.82;100.00;100137.06;5009793;28;20026;-63
2023/01/08 06:30:58;;;;;;;5.38;1.80;;;;;;;7.81;100.00;100140.59;5011093;28;20030;-63
2023/01/08 06:33:23;;;;;;;8.02;2.17;;;;;;;7.80;100.00;100144.13;5011381;28;20022;-64
2023/01/08 06:35:49;;;;;;;10.93;2.00;;;;;;;7.78;100.00;100147.69;5007459;28;20043;-63
2023/01/08 06:38:14;;;;;;;7.45;2.13;;;;;;;7.77;100.00;100146.84;5005033;28;20105;-63
2023/01/08 06:40:39;;;;;;;9.45;2.00;;;;;;;7.75;100.00;100134.69;5012308;28;20124;-63
2023/01/08 06:43:05;;;;;;;6.40;2.03;;;;;;;7.74;100.00;100138.22;5009619;28;20030;-63
2023/01/08 06:45:31;;;;;;;6.18;1.90;;;;;;;7.75;100.00;100137.31;5011031;28;20083;-63
2023/01/08 06:48:04;;;;;;;12.27;2.17;;;;;;;7.77;100.00;100132.88;5010676;28;20113;-62
2023/01/08 06:50:30;;;;;;;11.55;3.15;;;;;;;7.75;100.00;100134.69;5012737;28;20030;-63
2023/01/08 06:52:56;;;;;;;9.48;2.30;;;;;;;7.70;100.00;100133.09;5010278;28;20030;-61
2023/01/08 06:55:22;;;;;;;10.40;2.22;;;;;;;7.80;100.00;100143.28;5003382;28;20034;-63
2023/01/08 06:57:47;;;;;;;7.07;1.95;;;;;;;7.80;100.00;100141.50;5011959;28;20029;-63
2023/01/08 07:00:13;;;;;;;13.73;1.58;;;;;;;7.80;100.00;100124.91;5010193;28;20018;-63
2023/01/08 07:02:38;;;;;;;10.07;1.90;;;;;;;7.80;100.00;100122.28;5010247;28;20053;-63
2023/01/08 07:05:04;;;;;;;12.52;2.67;;;;;;;7.86;100.00;100121.22;5010504;28;20041;-63
2023/01/08 07:07:29;;;;;;;7.55;1.90;;;;;;;7.76;100.00;100125.91;5009389;28;20038;-63
2023/01/08 07:09:54;;;;;;;9.95;1.50;;;;;;;7.71;100.00;100129.53;5010210;28;20464;-63
2023/01/08 07:12:20;;;;;;;8.52;2.05;;;;;;;7.70;100.00;100119.09;5008974;28;20084;-63
2023/01/08 07:14:45;;;;;;;8.68;1.73;;;;;;;7.71;100.00;100118.22;5008585;28;20033;-63
2023/01/08 07:17:10;;;;;;;15.07;1.80;;;;;;;7.71;100.00;100123.47;5008809;28;20033;-63
2023/01/08 07:19:36;;;;;;;11.75;1.85;;;;;;;7.65;100.00;100113.19;5008949;28;20040;-60
2023/01/08 07:22:01;;;;;;;13.05;2.30;;;;;;;7.66;100.00;100110.50;4990979;28;20112;-64
2023/01/08 07:24:27;;;;;;;13.07;1.45;;;;;;;7.68;100.00;100116.53;5008782;28;20021;-63
2023/01/08 07:26:52;;;;;;;14.23;2.22;;;;;;;7.72;100.00;100112.06;5007663;28;20128;-64
2023/01/08 07:29:17;;;;;;;8.23;1.95;;;;;;;7.73;100.00;100116.38;5008094;28;20153;-63
2023/01/08 07:31:43;;;;;;;13.18;1.85;;;;;;;7.69;100.00;100114.78;5008676;28;20072;-63
2023/01/08 07:34:08;;;;;;;7.50;1.98;;;;;;;7.66;100.00;100113.13;5008220;28;20468;-59
2023/01/08 07:36:33;;;;;;;9.40;1.83;;;;;;;7.62;100.00;100115.91;5007953;28;20448;-63
2023/01/08 07:38:59;;;;;;;9.23;1.92;;;;;;;7.61;100.00;100103.69;5008217;28;20431;-64
2023/01/08 07:41:25;;;;;;;10.20;1.90;;;;;;;7.58;100.00;100108.13;5008225;28;20021;-62
2023/01/08 07:43:50;;;;;;;8.65;1.95;;;;;;;7.55;100.00;100112.59;5008251;28;20030;-60
2023/01/08 07:46:16;;;;;;;9.68;2.13;;;;;;;7.51;100.00;100106.63;5012181;28;20021;-64
2023/01/08 07:48:41;;;;;;;9.88;2.33;;;;;;;7.50;100.00;100112.78;5010689;28;20036;-63
2023/01/08 07:51:07;;;;;;;12.90;1.85;;;;;;;7.52;100.00;100113.56;5007876;28;20037;-62
2023/01/08 07:53:33;;;;;;;12.23;2.10;;;;;;;7.54;100.00;100116.16;5008981;28;20022;-63
2023/01/08 07:56:00;;;;;;;13.27;1.98;;;;;;;7.50;100.00;100118.03;5007412;28;20026;-63
2023/01/08 07:58:25;;;;;;;6.72;1.80;;;;;;;7.40;100.00;100119.19;5007920;28;20369;-64
2023/01/08 08:00:52;;;;;;;9.65;2.08;;;;;;;7.43;100.00;100113.88;5007892;28;20503;-63
2023/01/08 08:03:17;;;;;;;15.18;1.98;;;;;;;7.46;100.00;100121.63;5008473;28;20139;-64
2023/01/08 08:05:43;;;;;;;16.35;2.35;;;;;;;7.45;100.00;100117.31;5007610;28;20030;-63
2023/01/08 08:08:09;;;;;;;17.25;1.85;;;;;;;7.42;100.00;100105.16;5007983;28;20041;-64
2023/01/08 08:10:35;;;;;;;10.55;1.50;;;;;;;7.43;100.00;100108.63;5008425;28;20030;-64
2023/01/08 08:13:00;;;;;;;10.60;1.88;;;;;;;7.49;100.00;100103.19;5010299;28;20024;-63
2023/01/08 08:15:26;;;;;;;12.88;2.53;;;;;;;7.40;100.00;100095.63;5008059;28;20482;-63
2023/01/08 08:17:51;;;;;;;13.40;2.63;;;;;;;7.41;100.00;100090.31;5007478;28;20024;-64
2023/01/08 08:20:16;;;;;;;17.48;3.28;;;;;;;7.44;100.00;100090.22;5015729;28;20018;-62
2023/01/08 08:22:42;;;;;;;17.50;2.63;;;;;;;7.52;100.00;100089.97;5007703;28;20476;-64
2023/01/08 08:25:07;;;;;;;13.95;2.40;;;;;;;7.44;100.00;100086.75;5007716;28;20034;-64
2023/01/08 08:27:33;;;;;;;9.40;1.90;;;;;;;7.51;100.00;100084.78;5006879;28;20081;-61
2023/01/08 08:29:58;;;;;;;15.65;2.38;;;;;;;7.51;100.00;100096.13;5007378;28;20018;-63
2023/01/08 08:32:23;;;;;;;12.45;2.22;;;;;;;7.52;100.00;100082.09;5014210;28;20052;-63
2023/01/08 08:34:49;;;;;;;13.73;2.20;;;;;;;7.49;100.00;100074.34;5007612;28;20037;-62
2023/01/08 08:37:15;;;;;;;7.80;1.92;;;;;;;7.49;100.00;100081.38;5006698;28;20025;-63
2023/01/08 08:39:40;;;;;;;11.77;1.90;;;;;;;7.57;100.00;100072.34;5007440;28;20391;-64
2023/01/08 08:42:06;;;;;;;6.80;1.77;;;;;;;7.59;100.00;100073.13;5006549;28;20047;-64
2023/01/08 08:44:31;;;;;;;12.38;2.92;;;;;;;7.61;100.00;100064.38;5007042;28;20030;-64
2023/01/08 08:46:56;;;;;;;9.23;2.05;;;;;;;7.67;100.00;100061.50;5008137;28;20025;-63
2023/01/08 08:49:22;;;;;;;8.45;2.65;;;;;;;7.70;100.00;100070.16;5008562;28;20111;-63
2023/01/08 08:51:47;;;;;;;15.75;2.50;;;;;;;7.69;100.00;100068.44;5008644;28;20485;-63
2023/01/08 08:54:12;;;;;;;12.60;2.45;;;;;;;7.70;100.00;100064.91;5007412;28;20413;-63
2023/01/08 08:56:38;;;;;;;16.83;2.15;;;;;;;7.69;100.00;100067.56;5006948;28;20041;-63
2023/01/08 08:59:03;;;;;;;12.20;2.20;;;;;;;7.79;100.00;100063.72;5006854;28;20026;-63
2023/01/08 09:01:28;;;;;;;10.05;2.30;;;;;;;7.80;100.00;100069.84;5007820;28;20022;-64
2023/01/08 09:03:54;;;;;;;11.57;2.55;;;;;;;7.88;100.00;100057.31;4973697;28;20117;-63
2023/01/08 09:06:19;;;;;;;24.50;2.72;;;;;;;7.97;100.00;100056.13;5007620;28;20129;-63
2023/01/08 09:08:45;;;;;;;15.32;2.42;;;;;;;7.98;100.00;100068.34;5007722;28;20026;-63
2023/01/08 09:11:10;;;;;;;14.43;2.08;;;;;;;8.02;100.00;100056.81;5006502;28;21283;-64
2023/01/08 09:13:36;;;;;;;13.00;2.25;;;;;;;7.97;100.00;100056.13;5006923;28;20084;-64
2023/01/08 09:16:02;;;;;;;10.50;2.17;;;;;;;7.98;100.00;100052.59;5006892;28;20037;-63
2023/01/08 09:18:27;;;;;;;11.20;2.00;;;;;;;8.04;100.00;100052.34;5006836;28;20034;-64
2023/01/08 09:20:53;;;;;;;16.45;3.03;;;;;;;8.08;100.00;100043.47;5006284;28;20041;-62
2023/01/08 09:23:18;;;;;;;12.32;1.80;;;;;;;8.13;100.00;100038.03;5006949;28;20030;-62
2023/01/08 09:25:43;;;;;;;11.23;2.20;;;;;;;8.18;100.00;100046.63;5006069;28;20121;-63
2023/01/08 09:28:11;;;;;;;8.90;1.77;;;;;;;8.26;100.00;100046.34;5005963;28;20018;-64
2023/01/08 09:30:37;;;;;;;17.85;2.22;;;;;;;8.26;100.00;100037.59;4984078;28;20019;-65
2023/01/08 09:33:03;;;;;;;12.98;1.77;;;;;;;8.32;100.00;100046.13;4997064;28;20145;-64
2023/01/08 09:35:32;;;;;;;9.32;1.92;;;;;;;8.31;100.00;100044.38;5009943;28;20519;-64
2023/01/08 09:37:58;;;;;;;14.02;2.28;;;;;;;8.38;100.00;100045.03;4993100;28;20054;-62
2023/01/08 09:40:25;;;;;;;15.20;2.22;;;;;;;8.39;100.00;100040.59;5009608;28;20064;-64
2023/01/08 09:42:57;;;;;;;12.85;2.58;;;;;;;8.56;100.00;100042.66;4991349;28;20018;-64
2023/01/08 09:45:27;;;;;;;10.52;2.33;;;;;;;8.54;100.00;100053.19;4993505;28;20029;-63
2023/01/08 09:47:53;;;;;;;13.10;2.30;;;;;;;8.55;100.00;100046.19;5009361;28;20065;-64
2023/01/08 09:50:19;;;;;;;12.38;2.20;;;;;;;8.52;100.00;100047.09;5012068;28;20463;-62
2023/01/08 09:52:45;;;;;;;10.85;2.67;;;;;;;8.60;100.00;100041.59;4992927;28;20034;-62
2023/01/08 09:55:15;;;;;;;12.30;2.45;;;;;;;8.70;100.00;100045.59;5009504;28;20026;-62
2023/01/08 09:57:41;;;;;;;13.63;2.28;;;;;;;8.73;100.00;100049.84;4991651;28;20040;-63
2023/01/08 10:00:15;;;;;;;12.88;2.67;;;;;;;8.66;100.00;100051.00;5010387;28;20057;-60
2023/01/08 10:02:41;;;;;;;15.20;1.90;;;;;;;8.77;100.00;100051.47;4992616;28;20061;-62
2023/01/08 10:05:12;;;;;;;9.73;2.17;;;;;;;8.87;100.00;100051.94;4992159;28;20065;-63
2023/01/08 10:07:38;;;;;;;16.65;2.28;;;;;;;8.90;100.00;100045.72;5004141;28;20052;-62
2023/01/08 10:10:04;;;;;;;12.95;2.08;;;;;;;8.89;100.00;100050.13;4989167;28;20030;-62
2023/01/08 10:12:31;;;;;;;13.10;2.25;;;;;;;8.99;100.00;100034.84;4989879;28;20029;-63
2023/01/08 10:15:02;;;;;;;10.57;2.13;;;;;;;9.13;100.00;100039.56;4976048;28;20073;-61
2023/01/08 10:17:40;;;;;;;12.20;2.90;;;;;;;9.34;100.00;100035.16;4989431;28;20033;-63
2023/01/08 10:20:16;;;;;;;13.63;2.72;;;;;;;9.57;100.00;100028.06;5004825;28;20353;-62
2023/01/08 10:22:43;;;;;;;8.40;2.00;;;;;;;9.65;100.00;100025.13;5005427;28;20180;-64
2023/01/08 10:25:12;;;;;;;12.75;2.40;;;;;;;9.67;100.00;100019.81;5007123;28;20018;-64
2023/01/08 10:27:57;;;;;;;9.57;2.25;;;;;;;9.75;100.00;100022.09;5006802;28;20037;-63
2023/01/08 10:30:43;;;;;;;8.70;2.53;;;;;;;9.66;100.00;100023.38;5009111;28;20033;-63
2023/01/08 10:33:12;;;;;;;8.48;1.95;;;;;;;9.61;100.00;100027.03;5008317;28;20041;-64
2023/01/08 10:35:39;;;;;;;11.63;2.03;;;;;;;9.57;100.00;100022.81;5009162;28;20026;-63
2023/01/08 10:38:04;;;;;;;10.48;2.00;;;;;;;9.72;100.00;100015.19;5003887;28;20109;-62
2023/01/08 10:40:36;;;;;;;10.63;2.50;;;;;;;9.70;100.00;100015.25;5007880;28;20141;-64
2023/01/08 10:43:07;;;;;;;15.05;2.70;;;;;;;9.83;100.00;100010.31;4991393;28;20022;-64
2023/01/08 10:45:32;;;;;;;10.32;2.35;;;;;;;9.81;100.00;100006.88;4989104;28;20088;-64
2023/01/08 10:48:00;;;;;;;11.50;2.47;;;;;;;9.89;100.00;100006.56;5008688;28;20018;-63
2023/01/08 10:50:28;;;;;;;10.00;2.05;;;;;;;9.95;100.00;99997.53;4990509;28;20022;-61
2023/01/08 10:53:04;;;;;;;11.95;2.15;;;;;;;10.02;100.00;99998.97;5006003;28;20022;-62
2023/01/08 10:55:32;;;;;;;10.43;2.47;;;;;;;10.05;100.00;99987.47;5006037;28;20032;-62
2023/01/08 10:58:00;;;;;;;8.70;1.75;;;;;;;10.03;100.00;99987.53;4991328;28;20505;-62
2023/01/08 11:00:36;;;;;;;12.23;2.00;;;;;;;10.16;100.00;99981.69;5008415;28;20464;-64
2023/01/08 11:03:04;;;;;;;8.13;1.98;;;;;;;10.26;100.00;99976.88;5006732;28;20121;-63
2023/01/08 11:05:37;;;;;;;10.95;1.90;;;;;;;10.33;100.00;99973.84;4991132;28;20029;-62
2023/01/08 11:08:06;;;;;;;14.90;2.17;;;;;;;10.25;100.00;99976.00;4990761;28;20041;-62
2023/01/08 11:10:33;;;;;;;8.60;1.77;;;;;;;10.25;100.00;99978.63;4990594;28;20033;-62
2023/01/08 11:13:03;;;;;;;9.15;1.70;;;;;;;10.39;100.00;99974.50;4990723;28;20090;-62
2023/01/08 11:15:40;;;;;;;10.98;1.70;;;;;;;10.53;100.00;99961.56;4990979;28;20054;-63
2023/01/08 11:18:18;;;;;;;6.28;1.63;;;;;;;10.35;100.00;99969.38;4991272;28;20021;-63
2023/01/08 11:20:44;;;;;;;5.85;1.60;;;;;;;10.61;100.00;99955.91;4991092;28;20468;-61